Etihad Airways Virtual Airport Information Service

Doha Hamad International Airport

ICAO: OTHH Country: Qatar
Latitude: 25.2731 Longitude: 51.6081
Latest Arrival : QTR901 (YPPH-OTHH) Latest Departure : QTR900 (OTHH-YPPH)


WX CaptureLIVE
Data provided by noaa.gov | Recorded at 07:37:27

METAR : OTHH 150700Z 35013KT CAVOK 30/14 Q1012 NOSIG

TAF : OTHH 150507Z 1506/1612 01016KT 9000 FEW030 SCT100 TEMPO 1507/1510 6000 -RA FEW030 BKN080 BECMG 1518/1520 31018G28KT CAVOK


Runway Data for OTHH
Data provided by openaviationdata.com

Runway ID Mag Var Hdg Length Elevation Surface ILS Freq ILS Id ILS Slope

Doha Hamad International Airport, Qatar
Use only for reference purposes